createdAt,value
2018-07-22T00:00:01.479Z,6.2
2018-07-22T00:05:01.363Z,6.2
2018-07-22T00:10:01.490Z,5.9
2018-07-22T00:15:01.393Z,5.9
2018-07-22T00:20:01.427Z,6.1
2018-07-22T00:30:01.431Z,6.2
2018-07-22T00:35:01.339Z,6.0
2018-07-22T00:40:01.504Z,6.4
2018-07-22T00:45:01.434Z,6.2
2018-07-22T00:50:01.438Z,6.2
2018-07-22T01:00:01.926Z,6.4
2018-07-22T01:05:01.387Z,6.0
2018-07-22T01:10:01.512Z,6.0
2018-07-22T01:15:01.370Z,6.0
2018-07-22T01:20:01.433Z,5.7
2018-07-22T01:25:01.375Z,5.6
2018-07-22T01:30:01.373Z,5.4
2018-07-22T01:35:01.409Z,5.2
2018-07-22T01:40:01.545Z,5.2
2018-07-22T01:45:01.413Z,5.6
2018-07-22T01:50:06.511Z,5.5
2018-07-22T01:55:01.403Z,5.7
2018-07-22T02:00:01.443Z,6.0
2018-07-22T02:05:01.340Z,6.1
2018-07-22T02:10:01.439Z,6.3
2018-07-22T02:15:01.401Z,6.4
2018-07-22T02:20:01.511Z,6.4
2018-07-22T02:25:01.364Z,6.4
2018-07-22T02:30:01.576Z,6.4
2018-07-22T02:35:01.375Z,6.2
2018-07-22T02:40:01.434Z,6.3
2018-07-22T02:45:01.449Z,6.6
2018-07-22T02:50:01.451Z,6.4
2018-07-22T02:55:01.387Z,6.5
2018-07-22T03:00:01.513Z,6.4
2018-07-22T03:05:01.348Z,6.2
2018-07-22T03:10:01.431Z,6.0
2018-07-22T03:15:01.372Z,5.9
2018-07-22T03:20:01.435Z,6.0
2018-07-22T03:25:01.384Z,5.9
2018-07-22T03:30:01.530Z,6.1
2018-07-22T03:35:01.319Z,6.1
2018-07-22T03:40:01.442Z,6.3
2018-07-22T03:45:01.380Z,6.4
2018-07-22T03:50:01.444Z,6.5
2018-07-22T03:55:01.374Z,6.6
2018-07-22T04:00:01.435Z,6.8
2018-07-22T04:05:01.368Z,6.8
2018-07-22T04:10:01.512Z,6.8
2018-07-22T04:15:01.386Z,6.6
2018-07-22T04:20:01.457Z,6.5
2018-07-22T04:25:01.393Z,6.3
2018-07-22T04:30:01.446Z,6.1
2018-07-22T04:40:01.509Z,6.4
2018-07-22T04:45:01.383Z,6.2
2018-07-22T04:50:01.473Z,6.2
2018-07-22T04:55:01.377Z,6.1
2018-07-22T05:00:01.514Z,6.0
2018-07-22T05:05:01.359Z,5.8
2018-07-22T05:15:01.454Z,6.1
2018-07-22T05:21:01.513Z,6.4
2018-07-22T05:26:01.367Z,7.1
2018-07-22T05:31:01.430Z,7.8
2018-07-22T05:36:01.511Z,8.6
2018-07-22T05:46:01.477Z,8.9
2018-07-22T05:51:01.444Z,8.6
2018-07-22T05:57:01.391Z,8.3
2018-07-22T06:02:01.504Z,8.0
2018-07-22T06:07:01.375Z,7.6
2018-07-22T06:12:01.897Z,7.2
2018-07-22T06:17:01.384Z,7.3
2018-07-22T06:22:01.455Z,7.3
2018-07-22T06:27:01.371Z,7.4
2018-07-22T06:32:01.437Z,7.7
2018-07-22T06:37:01.429Z,7.8
2018-07-22T06:42:01.517Z,7.6
2018-07-22T06:47:01.392Z,7.4
2018-07-22T06:52:01.460Z,7.5
2018-07-22T06:57:01.409Z,7.3
2018-07-22T07:07:01.464Z,7.3
2018-07-22T07:12:01.511Z,7.2
2018-07-22T07:17:01.341Z,6.9
2018-07-22T07:22:01.515Z,7.3
2018-07-22T07:27:01.352Z,7.4
2018-07-22T07:32:01.446Z,7.4
2018-07-22T07:37:01.382Z,7.4
2018-07-22T07:42:01.451Z,7.4
2018-07-22T07:47:01.356Z,7.2
2018-07-22T07:52:01.618Z,7.2
2018-07-22T07:57:01.451Z,7.2
2018-07-22T08:02:01.462Z,7.2
2018-07-22T08:07:01.437Z,7.0
2018-07-22T08:12:01.409Z,6.9
2018-07-22T08:17:01.422Z,6.7
2018-07-22T08:22:01.659Z,6.7
2018-07-22T08:27:01.576Z,6.7
2018-07-22T08:32:01.422Z,6.9
2018-07-22T08:37:01.386Z,6.8
2018-07-22T08:42:01.478Z,6.6
2018-07-22T08:47:01.391Z,6.3
2018-07-22T08:52:01.416Z,5.9
2018-07-22T08:57:06.368Z,6.0
2018-07-22T09:03:01.314Z,5.9
2018-07-22T09:13:01.511Z,6.2
2018-07-22T09:18:01.550Z,6.5
2018-07-22T09:23:01.448Z,6.4
2018-07-22T09:28:01.387Z,6.5
2018-07-22T09:33:01.519Z,7.0
2018-07-22T09:38:01.375Z,7.2
2018-07-22T09:43:01.507Z,7.3
2018-07-22T09:48:01.457Z,7.6
2018-07-22T09:53:01.376Z,7.5
2018-07-22T09:58:01.390Z,7.1
2018-07-22T10:03:01.448Z,7.1
2018-07-22T10:13:01.516Z,6.7
2018-07-22T10:18:01.361Z,6.6
2018-07-22T10:23:01.387Z,6.8
2018-07-22T10:29:01.409Z,6.6
2018-07-22T10:34:06.347Z,7.0
2018-07-22T10:44:01.442Z,6.9
2018-07-22T10:49:01.442Z,7.1
2018-07-22T10:54:01.355Z,7.1
2018-07-22T10:59:01.452Z,7.2
2018-07-22T11:04:01.390Z,7.4
2018-07-22T11:09:01.516Z,7.6
2018-07-22T11:14:01.378Z,7.2
2018-07-22T11:29:01.801Z,6.5
2018-07-22T11:34:01.352Z,6.3
2018-07-22T11:39:01.445Z,6.3
2018-07-22T11:44:01.744Z,6.3
2018-07-22T11:59:01.639Z,6.3
2018-07-22T12:04:01.375Z,6.5
2018-07-22T12:09:01.408Z,6.4
2018-07-22T12:14:01.375Z,6.4
2018-07-22T12:19:01.444Z,6.4
2018-07-22T12:24:01.644Z,6.2
2018-07-22T12:29:01.612Z,6.0
2018-07-22T12:34:01.361Z,6.0
2018-07-22T12:39:01.462Z,6.0
2018-07-22T12:44:01.398Z,5.9
2018-07-22T12:50:01.502Z,5.8
2018-07-22T13:00:01.576Z,5.6
2018-07-22T13:05:01.387Z,5.8
2018-07-22T13:10:01.507Z,6.0
2018-07-22T13:15:01.356Z,6.1
2018-07-22T13:25:01.397Z,6.2
2018-07-22T13:30:01.461Z,6.0
2018-07-22T13:35:01.320Z,5.9
2018-07-22T13:40:01.400Z,6.0
2018-07-22T13:45:01.357Z,6.1
2018-07-22T13:50:01.495Z,6.1
2018-07-22T14:00:06.458Z,5.8
2018-07-22T14:05:01.389Z,5.5
2018-07-22T14:10:01.422Z,5.1
2018-07-22T14:15:01.373Z,4.7
2018-07-22T14:20:01.390Z,4.6
2018-07-22T14:25:01.505Z,4.6
2018-07-22T14:30:01.426Z,4.4
2018-07-22T14:35:01.583Z,4.4
2018-07-22T14:41:02.207Z,4.6
2018-07-22T14:51:01.443Z,4.4
2018-07-22T14:56:01.387Z,4.4
2018-07-22T15:06:01.440Z,4.4
2018-07-22T15:11:01.644Z,4.6
2018-07-22T15:16:01.397Z,4.8
2018-07-22T15:21:01.551Z,5.0
2018-07-22T15:26:01.429Z,4.8
2018-07-22T15:31:01.540Z,5.0
2018-07-22T15:41:01.417Z,4.7
2018-07-22T15:46:01.384Z,4.9
2018-07-22T15:51:01.449Z,4.9
2018-07-22T15:56:01.616Z,4.3
2018-07-22T16:01:01.450Z,3.7
2018-07-22T16:06:01.414Z,3.1
2018-07-22T16:11:01.519Z,2.5
2018-07-22T16:16:01.392Z,2.4
2018-07-22T16:21:01.370Z,2.8
2018-07-22T16:26:01.359Z,3.2
2018-07-22T16:31:01.436Z,3.3
2018-07-22T16:36:01.379Z,3.3
2018-07-22T16:41:01.444Z,3.1
2018-07-22T16:46:01.357Z,2.9
2018-07-22T16:51:01.392Z,2.9
2018-07-22T16:56:01.366Z,2.8
2018-07-22T17:01:01.489Z,2.9
2018-07-22T17:11:01.454Z,3.5
2018-07-22T17:16:01.369Z,3.3
2018-07-22T17:21:01.481Z,3.6
2018-07-22T17:26:01.400Z,3.7
2018-07-22T17:31:01.613Z,3.8
2018-07-22T17:36:01.384Z,3.6
2018-07-22T17:46:01.490Z,3.8
2018-07-22T17:51:01.555Z,3.6
2018-07-22T18:06:01.451Z,3.4
2018-07-22T18:11:01.449Z,3.4
2018-07-22T18:21:06.405Z,3.8
2018-07-22T18:26:01.388Z,4.2
2018-07-22T18:31:01.511Z,4.7
2018-07-22T18:36:01.397Z,5.1
2018-07-22T18:41:01.515Z,5.5
2018-07-22T18:46:01.391Z,5.7
2018-07-22T18:51:01.670Z,5.7
2018-07-22T18:56:01.377Z,5.8
2018-07-22T19:01:01.464Z,5.8
2018-07-22T19:06:01.395Z,5.8
2018-07-22T19:11:01.508Z,6.0
2018-07-22T19:16:01.386Z,6.4
2018-07-22T19:21:01.634Z,6.6
2018-07-22T19:26:01.400Z,6.4
2018-07-22T19:31:01.448Z,5.8
2018-07-22T19:36:01.455Z,5.4
2018-07-22T19:41:01.454Z,4.7
2018-07-22T19:46:01.363Z,4.3
2018-07-22T19:51:01.519Z,4.0
2018-07-22T19:56:01.394Z,4.7
2018-07-22T20:06:01.391Z,5.3
2018-07-22T20:11:01.453Z,5.5
2018-07-22T20:16:01.357Z,5.9
2018-07-22T20:21:01.385Z,6.1
2018-07-22T20:26:01.356Z,6.2
2018-07-22T20:36:01.551Z,6.1
2018-07-22T20:41:01.491Z,6.0
2018-07-22T20:46:01.577Z,5.8
2018-07-22T20:51:01.533Z,6.0
2018-07-22T20:56:01.353Z,6.2
2018-07-22T21:01:01.510Z,6.4
2018-07-22T21:06:06.361Z,6.5
2018-07-22T21:11:01.487Z,6.2
2018-07-22T21:16:01.423Z,6.0
2018-07-22T21:21:01.858Z,5.8
2018-07-22T21:26:01.434Z,5.5
2018-07-22T21:31:01.541Z,5.3
2018-07-22T21:41:01.510Z,5.0
2018-07-22T21:46:01.355Z,4.4
2018-07-22T21:51:01.455Z,4.4
2018-07-22T21:56:01.365Z,4.2
2018-07-22T22:01:01.467Z,4.0
2018-07-22T22:06:01.375Z,4.2
2018-07-22T22:11:01.444Z,4.2
2018-07-22T22:16:01.352Z,4.0
2018-07-22T22:21:01.506Z,4.0
2018-07-22T22:36:01.510Z,4.2
2018-07-22T22:41:01.670Z,4.4
2018-07-22T22:46:01.396Z,4.2
2018-07-22T22:51:01.548Z,4.1
2018-07-22T22:56:01.395Z,4.3
2018-07-22T23:02:01.507Z,4.3
2018-07-22T23:12:01.451Z,4.5
2018-07-22T23:17:01.358Z,4.5
2018-07-22T23:22:01.448Z,5.0
2018-07-22T23:27:01.424Z,5.2
2018-07-22T23:32:01.478Z,5.5
2018-07-22T23:37:01.354Z,5.7
2018-07-22T23:42:01.378Z,6.2
2018-07-22T23:47:01.357Z,5.8
2018-07-22T23:52:01.443Z,6.0
2018-07-22T23:57:01.318Z,5.8
